Reklama
Líbí se Vám tento web? Budeme velmi rádi, pokud přidáte hodnocení +1

Seznam meteostanic a jejich METAR

Vyhledat místa podle abecedy:
A B C D E F G H I J K L M N O P Q R S T U V W X Y Z

Filtrovat:

ID stanice:
a/nebo
Název místa (fulltext):
 
Místo (ID)Naposledy načteno 
Verona (LIPX) 21.06.2018 01:50 UTC Zobrazit METAR
LIPX 210150Z 33003KT CAVOK 20/16 Q1017
Vienna (LOWW) 21.06.2018 01:50 UTC Zobrazit METAR
LOWW 210150Z 20003KT 160V250 CAVOK 20/15 Q1016 NOSIG
Vientiane (VLVT) 21.06.2018 02:00 UTC Zobrazit METAR
VLVT 210200Z 30002KT 5000 BR BKN016 BKN083 28/26 Q1009 NOSIG
Vieuxfort (TLPL) 21.06.2018 02:00 UTC Zobrazit METAR
TLPL 210200Z 09014KT 9999 SCT026 27/22 Q1017 NOSIG
Vilnius (EYVI) 21.06.2018 01:50 UTC Zobrazit METAR
EYVI 210150Z 17005KT CAVOK 11/09 Q1015 NOSIG
Vitebsk (UMII) Zatím nenačteno  
Volgograd (URWW) Zatím nenačteno  
Voronezh (UUOO) Zatím nenačteno  
Wake Island (PWAK) 21.06.2018 01:58 UTC Zobrazit METAR
PWAK 210158Z AUTO 08014KT 9999 FEW230 SCT340 31/24 A2993 RMK AO2 SLPNO
Warsaw (EPWA) 21.06.2018 02:00 UTC Zobrazit METAR
EPWA 210200Z 19002KT CAVOK 17/14 Q1016 NOSIG
Washington (KIAD) 21.06.2018 01:52 UTC Zobrazit METAR
KIAD 210152Z 00000KT 10SM FEW100 21/21 A2980 RMK AO2 RAE46 SLP087 P0007 T02110211
Wellington (NZWN) 21.06.2018 02:00 UTC Zobrazit METAR
NZWN 210200Z AUTO 16015KT 9999 -RA BKN027/// 09/06 Q1022 NOSIG
Windhoek (FYWH) 20.06.2018 10:00 UTC Zobrazit METAR
FYWH 201000Z 06008KT CAVOK 21/M07 Q1027 NOSIG
Wroclaw (EPWR) 21.06.2018 02:00 UTC Zobrazit METAR
EPWR 210200Z 13002KT 9999 MIFG NSC 16/13 Q1015
Yamoussoukro (DIYO) 21.06.2018 00:00 UTC Zobrazit METAR
DIYO 210000Z 18004KT CAVOK 24/23 Q1016 NOSIG
Yangon (VYYY) 21.06.2018 02:00 UTC Zobrazit METAR
VYYY 210200Z 18006KT 7000 FEW018 SCT110 29/26 Q1009
Yaounde (FKYS) 21.06.2018 02:00 UTC Zobrazit METAR
FKYS 210200Z /////KT 7000 FEW003 BKN006 20/19 Q1019 NOSIG
Yerevan (UGEE) Zatím nenačteno  
Zadar (LDZD) 21.06.2018 02:00 UTC Zobrazit METAR
LDZD 210200Z 11001KT CAVOK 17/15 Q1017 NOSIG
Zagreb (LDZA) 21.06.2018 02:00 UTC Zobrazit METAR
LDZA 210200Z 00000KT CAVOK 17/16 Q1017 NOSIG
Zaragoza (LEZG) 21.06.2018 02:00 UTC Zobrazit METAR
LEZG 210200Z 08005KT CAVOK 21/12 Q1018
Zhezkazgan (UAKD) Zatím nenačteno  
Zurich (LSZH) 21.06.2018 01:50 UTC Zobrazit METAR
LSZH 210150Z 00000KT CAVOK 16/14 Q1018 NOSIG
Předchozí 1 ... 7 8 9
Reklama

Počasí na Váš email

Emaily jsou bez reklamy a bez spamu



Odhlásit newsletter

Reklama


Lunární kalendář

  • 28.06.
  • 06.07.
  • 13.07.
  • 19.07.



Slunečno.cz na Google+

Reklama


Reklama
Povinné ručení
Reklama




Reklama